createdAt,value
2022-11-20T00:02:07.315Z,1.10
2022-11-20T00:04:34.121Z,1.20
2022-11-20T00:07:00.908Z,1.10
2022-11-20T00:09:27.678Z,1.20
2022-11-20T00:11:54.433Z,1.10
2022-11-20T00:14:21.131Z,1.10
2022-11-20T00:16:47.910Z,1.10
2022-11-20T00:19:14.713Z,1.10
2022-11-20T00:21:41.462Z,1.10
2022-11-20T00:24:10.068Z,1.10
2022-11-20T00:26:37.119Z,1.20
2022-11-20T00:29:03.932Z,1.10
2022-11-20T00:31:31.842Z,1.20
2022-11-20T00:33:58.616Z,1.10
2022-11-20T00:36:27.789Z,1.10
2022-11-20T00:38:56.607Z,1.20
2022-11-20T00:41:24.225Z,1.10
2022-11-20T00:43:53.023Z,1.20
2022-11-20T00:46:22.198Z,1.20
2022-11-20T00:48:49.363Z,1.20
2022-11-20T00:51:18.830Z,1.30
2022-11-20T00:53:46.346Z,1.30
2022-11-20T00:56:15.555Z,1.30
2022-11-20T00:58:44.380Z,1.30
2022-11-20T01:01:17.255Z,1.30
2022-11-20T01:03:46.066Z,1.20
2022-11-20T01:09:06.662Z,1.30
2022-11-20T01:11:37.077Z,1.30
2022-11-20T01:14:05.999Z,1.30
2022-11-20T01:16:34.047Z,1.20
2022-11-20T01:19:03.124Z,1.30
2022-11-20T01:21:38.271Z,1.20
2022-11-20T01:26:53.612Z,1.30
2022-11-20T01:32:09.919Z,1.20
2022-11-20T01:37:23.404Z,1.30
2022-11-20T01:42:36.972Z,1.30
2022-11-20T01:45:41.979Z,1.30
2022-11-20T01:48:08.985Z,1.30
2022-11-20T01:50:35.932Z,1.40
2022-11-20T01:53:07.983Z,1.40
2022-11-20T01:55:39.892Z,1.40
2022-11-20T01:58:07.517Z,1.40
2022-11-20T02:00:34.301Z,1.40
2022-11-20T02:03:08.129Z,1.40
2022-11-20T02:05:47.026Z,1.30
2022-11-20T02:08:13.891Z,1.30
2022-11-20T02:10:40.630Z,1.30
2022-11-20T02:13:07.517Z,1.40
2022-11-20T02:18:22.592Z,1.30
2022-11-20T02:26:58.829Z,1.30
2022-11-20T02:29:34.818Z,1.30
2022-11-20T02:32:05.261Z,1.30
2022-11-20T02:34:32.420Z,1.40
2022-11-20T02:37:00.618Z,1.30
2022-11-20T02:39:29.262Z,1.40
2022-11-20T02:41:57.119Z,1.30
2022-11-20T02:44:24.067Z,1.40
2022-11-20T02:46:50.806Z,1.40
2022-11-20T02:49:17.550Z,1.40
2022-11-20T02:51:44.373Z,1.40
2022-11-20T02:54:11.141Z,1.40
2022-11-20T02:56:39.860Z,1.40
2022-11-20T02:59:06.746Z,1.40
2022-11-20T03:01:33.634Z,1.40
2022-11-20T03:04:00.526Z,1.30
2022-11-20T03:06:27.255Z,1.40
2022-11-20T03:08:54.047Z,1.30
2022-11-20T03:11:21.196Z,1.30
2022-11-20T03:13:47.945Z,1.30
2022-11-20T03:16:18.160Z,1.40
2022-11-20T03:18:45.472Z,1.40
2022-11-20T03:21:14.043Z,1.40
2022-11-20T03:23:41.453Z,1.30
2022-11-20T03:26:20.274Z,1.40
2022-11-20T03:28:49.250Z,1.30
2022-11-20T03:31:17.727Z,1.30
2022-11-20T03:33:44.929Z,1.30
2022-11-20T03:36:14.953Z,1.30
2022-11-20T03:38:42.410Z,1.40
2022-11-20T03:41:12.318Z,1.30
2022-11-20T03:43:39.615Z,1.40
2022-11-20T03:46:07.544Z,1.40
2022-11-20T03:48:34.668Z,1.40
2022-11-20T03:51:17.834Z,1.40
2022-11-20T03:53:45.937Z,1.20
2022-11-20T03:56:14.620Z,1.30
2022-11-20T03:58:41.922Z,1.30
2022-11-20T04:01:17.465Z,1.30
2022-11-20T04:03:45.254Z,1.30
2022-11-20T04:06:20.260Z,1.30
2022-11-20T04:08:52.406Z,1.30
2022-11-20T04:11:25.889Z,1.40
2022-11-20T04:13:55.032Z,1.40
2022-11-20T04:19:15.241Z,1.30
2022-11-20T04:21:43.131Z,1.30
2022-11-20T04:24:10.358Z,1.20
2022-11-20T04:26:37.772Z,1.30
2022-11-20T04:29:04.848Z,1.30
2022-11-20T04:31:34.067Z,1.30
2022-11-20T04:36:52.641Z,1.30
2022-11-20T04:39:19.639Z,1.30
2022-11-20T04:41:46.585Z,1.30
2022-11-20T04:44:13.339Z,1.30
2022-11-20T04:46:43.143Z,1.20
2022-11-20T04:49:11.636Z,1.20
2022-11-20T04:51:38.515Z,1.20
2022-11-20T04:56:52.868Z,1.20
2022-11-20T04:59:19.904Z,1.30
2022-11-20T05:01:47.129Z,1.30
2022-11-20T05:04:13.985Z,1.30
2022-11-20T05:06:40.723Z,1.20
2022-11-20T05:09:07.558Z,1.30
2022-11-20T05:11:34.285Z,1.20
2022-11-20T05:14:01.034Z,1.20
2022-11-20T05:16:27.959Z,1.20
2022-11-20T05:18:55.988Z,1.20
2022-11-20T05:21:23.441Z,1.30
2022-11-20T05:23:50.168Z,1.10
2022-11-20T05:26:19.733Z,1.20
2022-11-20T05:28:46.633Z,1.20
2022-11-20T05:31:27.090Z,1.10
2022-11-20T05:33:55.041Z,1.00
2022-11-20T05:36:21.814Z,1.10
2022-11-20T05:38:50.913Z,1.10
2022-11-20T05:41:20.889Z,1.10
2022-11-20T05:43:49.206Z,1.00
2022-11-20T05:46:19.616Z,1.00
2022-11-20T05:51:35.817Z,1.10
2022-11-20T05:54:02.555Z,1.10
2022-11-20T05:56:29.300Z,1.10
2022-11-20T05:58:56.878Z,1.10
2022-11-20T06:04:12.794Z,0.90
2022-11-20T06:09:26.227Z,1.10
2022-11-20T06:11:53.017Z,1.10
2022-11-20T06:14:19.766Z,1.10
2022-11-20T06:16:46.473Z,1.00
2022-11-20T06:19:13.403Z,0.90
2022-11-20T06:21:40.134Z,1.00
2022-11-20T06:24:07.247Z,1.00
2022-11-20T06:26:33.974Z,1.00
2022-11-20T06:29:00.688Z,1.00
2022-11-20T06:31:27.700Z,1.10
2022-11-20T06:33:55.039Z,1.10
2022-11-20T06:36:23.635Z,1.00
2022-11-20T06:38:50.440Z,1.00
2022-11-20T06:41:19.884Z,1.00
2022-11-20T06:43:46.696Z,1.00
2022-11-20T06:46:14.927Z,1.00
2022-11-20T06:48:41.946Z,0.90
2022-11-20T06:51:09.455Z,1.00
2022-11-20T06:53:36.984Z,1.00
2022-11-20T06:56:04.417Z,1.00
2022-11-20T06:58:33.125Z,1.00
2022-11-20T07:01:07.696Z,1.00
2022-11-20T07:06:21.706Z,1.10
2022-11-20T07:11:35.193Z,1.10
2022-11-20T07:16:48.627Z,1.10
2022-11-20T07:22:02.188Z,1.10
2022-11-20T07:24:28.917Z,1.10
2022-11-20T07:26:55.745Z,1.10
2022-11-20T07:29:22.651Z,1.10
2022-11-20T07:31:49.536Z,1.10
2022-11-20T07:34:16.266Z,1.10
2022-11-20T07:36:43.021Z,1.10
2022-11-20T07:39:09.870Z,1.10
2022-11-20T07:41:36.628Z,1.10
2022-11-20T07:44:03.473Z,1.20
2022-11-20T07:46:30.265Z,1.10
2022-11-20T07:48:57.100Z,1.20
2022-11-20T07:51:23.863Z,1.10
2022-11-20T07:53:53.957Z,1.10
2022-11-20T07:56:20.707Z,1.20
2022-11-20T07:58:47.483Z,1.20
2022-11-20T08:01:14.368Z,1.10
2022-11-20T08:03:41.202Z,1.20
2022-11-20T08:06:08.467Z,1.20
2022-11-20T08:08:38.874Z,1.30
2022-11-20T08:11:09.141Z,1.20
2022-11-20T08:13:35.865Z,1.20
2022-11-20T08:16:02.605Z,1.20
2022-11-20T08:18:31.648Z,1.20
2022-11-20T08:21:02.278Z,1.20
2022-11-20T08:23:29.037Z,1.20
2022-11-20T08:28:42.465Z,1.20
2022-11-20T08:31:09.350Z,1.10
2022-11-20T08:33:36.102Z,1.10
2022-11-20T08:36:04.528Z,1.10
2022-11-20T08:38:32.223Z,1.10
2022-11-20T08:43:52.699Z,1.20
2022-11-20T08:49:08.235Z,1.20
2022-11-20T08:54:22.225Z,1.20
2022-11-20T08:56:49.440Z,1.20
2022-11-20T08:59:44.151Z,1.20
2022-11-20T09:02:02.950Z,1.20
2022-11-20T09:07:16.645Z,1.20
2022-11-20T09:12:30.172Z,1.20
2022-11-20T09:17:43.571Z,1.30
2022-11-20T09:20:10.621Z,1.30
2022-11-20T09:22:40.926Z,1.20
2022-11-20T09:25:08.021Z,1.20
2022-11-20T09:27:34.781Z,1.20
2022-11-20T09:30:01.524Z,1.30
2022-11-20T09:32:28.283Z,1.40
2022-11-20T09:34:55.026Z,1.50
2022-11-20T09:37:21.809Z,1.50
2022-11-20T09:39:48.593Z,1.60
2022-11-20T09:42:27.283Z,1.50
2022-11-20T09:45:27.112Z,1.40
2022-11-20T09:48:32.757Z,1.50
2022-11-20T09:57:19.701Z,1.50
2022-11-20T10:00:00.153Z,1.40
2022-11-20T10:02:41.892Z,1.50
2022-11-20T10:05:25.627Z,1.40
2022-11-20T10:08:01.480Z,1.40
2022-11-20T10:10:35.251Z,1.40
2022-11-20T10:13:25.056Z,1.60
2022-11-20T10:15:51.813Z,1.60
2022-11-20T10:21:08.428Z,1.40
2022-11-20T10:24:00.637Z,1.30
2022-11-20T10:29:35.093Z,1.40
2022-11-20T10:32:08.858Z,1.60
2022-11-20T10:34:51.468Z,1.70
2022-11-20T10:37:25.997Z,1.80
2022-11-20T10:40:04.964Z,1.90
2022-11-20T10:42:44.207Z,1.80
2022-11-20T10:45:54.768Z,1.70
2022-11-20T10:48:26.579Z,1.70
2022-11-20T10:51:07.572Z,1.80
2022-11-20T10:53:59.077Z,1.70
2022-11-20T10:56:50.365Z,1.80
2022-11-20T10:59:36.195Z,2.10
2022-11-20T11:04:52.041Z,3.70
2022-11-20T11:07:37.668Z,3.60
2022-11-20T11:10:43.044Z,3.90
2022-11-20T11:13:24.790Z,3.80
2022-11-20T11:18:38.947Z,3.70
2022-11-20T11:24:26.962Z,3.80
2022-11-20T11:29:46.776Z,4.10
2022-11-20T11:32:22.888Z,4.20
2022-11-20T11:35:04.066Z,3.80
2022-11-20T11:37:36.620Z,3.60
2022-11-20T11:43:00.642Z,3.50
2022-11-20T11:45:27.899Z,3.30
2022-11-20T11:50:50.938Z,3.20
2022-11-20T11:53:20.367Z,3.20
2022-11-20T11:56:04.926Z,3.00
2022-11-20T11:58:48.558Z,3.00
2022-11-20T12:01:51.993Z,2.90
2022-11-20T12:04:22.562Z,2.80
2022-11-20T12:06:58.774Z,2.80
2022-11-20T12:09:36.985Z,2.60
2022-11-20T12:14:59.775Z,2.50
2022-11-20T12:20:15.421Z,2.30
2022-11-20T12:22:52.786Z,2.40
2022-11-20T12:25:35.610Z,2.40
2022-11-20T12:28:20.151Z,2.60
2022-11-20T12:31:07.131Z,2.50
2022-11-20T12:33:40.050Z,2.40
2022-11-20T12:36:15.774Z,2.50
2022-11-20T12:38:51.396Z,2.30
2022-11-20T12:48:01.000Z,2.30
2022-11-20T12:51:13.594Z,2.30
2022-11-20T12:54:11.074Z,2.30
2022-11-20T12:57:03.585Z,2.30
2022-11-20T12:59:39.451Z,2.40
2022-11-20T13:02:23.659Z,2.80
2022-11-20T13:05:16.483Z,2.70
2022-11-20T13:10:43.777Z,2.70
2022-11-20T13:13:27.006Z,2.70
2022-11-20T13:16:17.088Z,2.70
2022-11-20T13:18:44.493Z,2.50
2022-11-20T13:21:20.550Z,2.60
2022-11-20T13:23:47.386Z,2.50
2022-11-20T13:26:24.981Z,2.50
2022-11-20T13:29:09.520Z,2.40
2022-11-20T13:31:37.578Z,2.50
2022-11-20T13:34:08.128Z,2.40
2022-11-20T13:36:35.034Z,2.20
2022-11-20T13:39:02.062Z,2.20
2022-11-20T13:41:30.814Z,2.30
2022-11-20T13:44:24.282Z,2.20
2022-11-20T13:46:51.409Z,2.10
2022-11-20T13:49:18.110Z,2.10
2022-11-20T13:51:47.154Z,2.00
2022-11-20T13:54:51.362Z,2.10
2022-11-20T13:57:42.560Z,2.00
2022-11-20T14:03:28.391Z,1.80
2022-11-20T14:06:23.298Z,1.70
2022-11-20T14:08:50.532Z,1.80
2022-11-20T14:11:25.909Z,1.70
2022-11-20T14:14:20.011Z,1.60
2022-11-20T14:16:48.109Z,1.60
2022-11-20T14:19:20.990Z,1.60
2022-11-20T14:21:53.434Z,1.60
2022-11-20T14:24:24.805Z,1.60
2022-11-20T14:26:52.915Z,1.60
2022-11-20T14:29:22.407Z,1.60
2022-11-20T14:31:54.282Z,1.60
2022-11-20T14:34:30.184Z,1.40
2022-11-20T14:39:57.654Z,1.50
2022-11-20T14:42:27.179Z,1.50
2022-11-20T14:45:01.813Z,1.50
2022-11-20T14:50:30.027Z,1.60
2022-11-20T14:53:02.015Z,1.50
2022-11-20T14:55:30.171Z,1.50
2022-11-20T14:57:59.376Z,1.60
2022-11-20T15:00:27.777Z,1.50
2022-11-20T15:02:54.875Z,1.50
2022-11-20T15:05:24.803Z,1.40
2022-11-20T15:08:06.208Z,1.50
2022-11-20T15:10:33.268Z,1.50
2022-11-20T15:13:11.427Z,1.50
2022-11-20T15:15:54.307Z,1.50
2022-11-20T15:18:24.081Z,1.50
2022-11-20T15:20:51.866Z,1.50
2022-11-20T15:23:20.239Z,1.50
2022-11-20T15:25:48.626Z,1.50
2022-11-20T15:28:33.138Z,1.50
2022-11-20T15:31:00.298Z,1.50
2022-11-20T15:33:27.114Z,1.50
2022-11-20T15:35:53.871Z,1.50
2022-11-20T15:38:20.605Z,1.50
2022-11-20T15:40:47.371Z,1.50
2022-11-20T15:43:14.795Z,1.40
2022-11-20T15:45:56.488Z,1.40
2022-11-20T15:48:35.377Z,1.30
2022-11-20T15:51:16.097Z,1.40
2022-11-20T15:53:43.144Z,1.30
2022-11-20T15:56:13.861Z,1.40
2022-11-20T15:58:41.587Z,1.40
2022-11-20T16:01:20.351Z,1.40
2022-11-20T16:03:47.497Z,1.40
2022-11-20T16:06:14.255Z,1.40
2022-11-20T16:08:41.033Z,1.30
2022-11-20T16:11:07.794Z,1.30
2022-11-20T16:13:34.631Z,1.20
2022-11-20T16:16:11.381Z,1.20
2022-11-20T16:18:38.262Z,1.10
2022-11-20T16:21:04.999Z,1.10
2022-11-20T16:23:31.737Z,1.00
2022-11-20T16:25:58.526Z,1.00
2022-11-20T16:28:33.516Z,0.90
2022-11-20T16:31:12.646Z,0.80
2022-11-20T16:33:39.461Z,0.70
2022-11-20T16:36:14.014Z,0.60
2022-11-20T16:38:41.164Z,0.60
2022-11-20T16:41:09.088Z,0.60
2022-11-20T16:43:35.867Z,0.60
2022-11-20T16:46:05.193Z,0.60
2022-11-20T16:48:31.931Z,0.70
2022-11-20T16:50:58.660Z,0.80
2022-11-20T16:53:25.587Z,0.60
2022-11-20T16:55:52.309Z,0.80
2022-11-20T16:58:19.071Z,0.80
2022-11-20T17:03:32.508Z,0.80
2022-11-20T17:08:47.177Z,0.80
2022-11-20T17:14:03.484Z,0.80
2022-11-20T17:19:18.023Z,0.80
2022-11-20T17:24:32.144Z,0.80
2022-11-20T17:29:45.853Z,0.70
2022-11-20T17:32:12.621Z,1.00
2022-11-20T17:34:39.351Z,0.70
2022-11-20T17:37:06.096Z,0.70
2022-11-20T17:39:32.871Z,0.70
2022-11-20T17:41:59.649Z,0.80
2022-11-20T17:44:26.446Z,0.80
2022-11-20T17:46:53.176Z,0.80
2022-11-20T17:49:22.899Z,0.80
2022-11-20T17:51:50.798Z,0.80
2022-11-20T17:54:17.555Z,0.80
2022-11-20T17:56:44.352Z,0.80
2022-11-20T17:59:13.193Z,0.80
2022-11-20T18:04:27.607Z,0.80
2022-11-20T18:06:54.343Z,0.90
2022-11-20T18:09:21.118Z,0.90
2022-11-20T18:11:47.911Z,1.00
2022-11-20T18:14:17.154Z,1.00
2022-11-20T18:16:46.558Z,0.90
2022-11-20T18:19:17.306Z,1.00
2022-11-20T18:24:31.910Z,0.90
2022-11-20T18:29:47.131Z,0.80
2022-11-20T18:32:13.991Z,0.90
2022-11-20T18:37:27.587Z,0.90
2022-11-20T18:42:41.017Z,1.00
2022-11-20T18:47:54.828Z,0.90
2022-11-20T18:50:22.268Z,0.90
2022-11-20T18:52:49.020Z,0.90
2022-11-20T18:55:15.784Z,1.00
2022-11-20T18:57:42.562Z,1.00
2022-11-20T19:00:10.494Z,0.90
2022-11-20T19:02:42.280Z,0.90
2022-11-20T19:08:01.248Z,0.80
2022-11-20T19:13:14.688Z,0.80
2022-11-20T19:18:28.773Z,0.70
2022-11-20T19:23:42.607Z,0.60
2022-11-20T19:28:56.560Z,0.50
2022-11-20T19:31:25.292Z,0.60
2022-11-20T19:34:02.385Z,0.50
2022-11-20T19:36:31.721Z,0.50
2022-11-20T19:41:45.535Z,0.40
2022-11-20T19:44:14.222Z,0.50
2022-11-20T19:46:41.675Z,0.40
2022-11-20T19:49:11.067Z,0.40
2022-11-20T19:51:40.174Z,0.40
2022-11-20T19:54:07.139Z,0.30
2022-11-20T19:56:34.457Z,0.30
2022-11-20T19:59:01.820Z,0.30
2022-11-20T20:01:30.885Z,0.20
2022-11-20T20:03:59.718Z,0.10
2022-11-20T20:06:27.357Z,0.10
2022-11-20T20:08:58.466Z,0.00
2022-11-20T20:11:27.020Z,0.00
2022-11-20T20:13:54.046Z,-0.10
2022-11-20T20:16:23.765Z,-0.10
2022-11-20T20:21:41.498Z,-0.20
2022-11-20T20:24:09.341Z,-0.30
2022-11-20T20:26:36.272Z,-0.30
2022-11-20T20:29:03.629Z,-0.40
2022-11-20T20:31:32.083Z,-0.40
2022-11-20T20:33:59.222Z,-0.40
2022-11-20T20:36:26.471Z,-0.40
2022-11-20T20:38:58.099Z,-0.40
2022-11-20T20:41:25.107Z,-0.50
2022-11-20T20:43:52.622Z,-0.50
2022-11-20T20:49:06.833Z,-0.60
2022-11-20T20:54:21.188Z,-0.70
2022-11-20T20:56:47.931Z,-0.70
2022-11-20T20:59:14.738Z,-0.70
2022-11-20T21:01:41.461Z,-0.70
2022-11-20T21:04:08.285Z,-0.80
2022-11-20T21:06:34.994Z,-0.80
2022-11-20T21:09:01.780Z,-0.90
2022-11-20T21:11:28.541Z,-0.90
2022-11-20T21:13:55.398Z,-0.90
2022-11-20T21:16:22.207Z,-1.00
2022-11-20T21:18:49.530Z,-0.90
2022-11-20T21:21:17.644Z,-1.00
2022-11-20T21:23:48.009Z,-1.00
2022-11-20T21:29:02.157Z,-1.10
2022-11-20T21:31:28.945Z,-1.20
2022-11-20T21:33:56.778Z,-1.30
2022-11-20T21:36:25.932Z,-1.30
2022-11-20T21:41:41.550Z,-1.40
2022-11-20T21:46:59.595Z,-1.50
2022-11-20T21:49:26.547Z,-1.50
2022-11-20T21:51:53.353Z,-1.50
2022-11-20T21:54:20.151Z,-1.50
2022-11-20T21:56:46.869Z,-1.40
2022-11-20T21:59:13.614Z,-1.40
2022-11-20T22:01:40.467Z,-1.50
2022-11-20T22:04:07.273Z,-1.50
2022-11-20T22:06:34.601Z,-1.50
2022-11-20T22:09:02.301Z,-1.40
2022-11-20T22:11:29.531Z,-1.20
2022-11-20T22:13:56.438Z,-1.30
2022-11-20T22:16:23.792Z,-1.30
2022-11-20T22:18:53.231Z,-1.20
2022-11-20T22:24:13.530Z,-1.20
2022-11-20T22:26:40.956Z,-1.10
2022-11-20T22:29:08.700Z,-1.00
2022-11-20T22:31:35.480Z,-1.00
2022-11-20T22:36:49.755Z,-1.00
2022-11-20T22:39:16.612Z,-1.00
2022-11-20T22:41:43.330Z,-1.10
2022-11-20T22:44:13.883Z,-1.00
2022-11-20T22:49:27.256Z,-1.00
2022-11-20T22:54:40.691Z,-1.00
2022-11-20T22:59:54.093Z,-1.00
2022-11-20T23:05:07.760Z,-1.00
2022-11-20T23:07:39.724Z,-0.90
2022-11-20T23:10:07.870Z,-0.90
2022-11-20T23:12:34.614Z,-0.90
2022-11-20T23:15:01.377Z,-0.90
2022-11-20T23:17:28.125Z,-0.90
2022-11-20T23:19:54.861Z,-0.90
2022-11-20T23:22:21.583Z,-0.90
2022-11-20T23:24:48.367Z,-0.90
2022-11-20T23:27:15.817Z,-0.90
2022-11-20T23:29:43.789Z,-0.90
2022-11-20T23:32:10.529Z,-0.90
2022-11-20T23:34:37.236Z,-0.90
2022-11-20T23:37:03.980Z,-0.90
2022-11-20T23:39:30.737Z,-1.00
2022-11-20T23:41:57.552Z,-0.90
2022-11-20T23:44:24.587Z,-1.00
2022-11-20T23:46:51.407Z,-1.00
2022-11-20T23:49:18.188Z,-1.00
2022-11-20T23:51:44.929Z,-1.00
2022-11-20T23:54:11.734Z,-1.00
2022-11-20T23:56:38.716Z,-0.90
